createdAt,value
2023-12-07T06:01:37.097Z,26.73
2023-12-07T06:02:09.682Z,26.73
2023-12-07T06:03:14.366Z,26.79
2023-12-07T06:04:08.760Z,26.76
2023-12-07T06:05:08.784Z,26.82
2023-12-07T06:06:08.767Z,26.75
2023-12-07T06:07:09.964Z,26.71
2023-12-07T06:08:11.833Z,26.54
2023-12-07T06:09:11.311Z,26.51
2023-12-07T06:10:08.827Z,26.54
2023-12-07T06:11:08.789Z,26.57
2023-12-07T06:12:08.773Z,26.44
2023-12-07T06:13:08.852Z,26.41
2023-12-07T06:14:08.760Z,26.35
2023-12-07T06:15:08.785Z,26.22
2023-12-07T06:16:08.779Z,26.24
2023-12-07T06:17:08.779Z,26.36
2023-12-07T06:18:08.813Z,26.28
2023-12-07T06:19:08.909Z,26.20
2023-12-07T06:20:08.777Z,26.15
2023-12-07T06:21:08.779Z,26.12
2023-12-07T06:22:08.846Z,26.09
2023-12-07T06:23:08.769Z,26.06
2023-12-07T06:24:08.788Z,25.93
2023-12-07T06:25:08.798Z,25.95
2023-12-07T06:26:08.782Z,26.06
2023-12-07T06:27:08.791Z,25.92
2023-12-07T06:28:08.874Z,25.98
2023-12-07T08:12:43.425Z,24.92
2023-12-07T08:13:09.457Z,24.89
2023-12-07T08:14:09.417Z,25.00
2023-12-07T08:15:09.467Z,24.96
2023-12-07T08:16:09.396Z,24.89
2023-12-07T08:17:09.436Z,25.59
2023-12-07T08:18:09.442Z,25.14
2023-12-07T08:19:09.489Z,25.44
2023-12-07T08:20:09.418Z,25.15
2023-12-07T08:21:09.494Z,24.97
2023-12-07T08:22:09.457Z,25.00
2023-12-07T08:23:09.407Z,25.03
2023-12-07T08:24:09.415Z,24.94
2023-12-07T08:25:11.647Z,24.89
2023-12-07T08:26:09.399Z,24.89
2023-12-07T08:27:09.414Z,24.89
2023-12-07T08:28:10.243Z,24.89
2023-12-07T08:29:10.606Z,24.96
2023-12-07T08:30:09.437Z,24.91
2023-12-07T08:31:09.437Z,24.86
2023-12-07T08:32:09.425Z,24.86
2023-12-07T08:33:09.538Z,24.88
2023-12-07T08:34:09.531Z,24.86
2023-12-07T08:35:12.227Z,24.87
2023-12-07T08:36:09.445Z,24.85
2023-12-07T08:37:09.479Z,24.92
2023-12-07T08:38:09.442Z,24.98
2023-12-07T08:39:09.441Z,24.90
2023-12-07T08:40:09.516Z,24.89
2023-12-07T08:41:09.446Z,24.83
2023-12-07T08:42:09.455Z,24.82
2023-12-07T08:43:09.465Z,24.86
2023-12-07T08:44:09.432Z,24.68
2023-12-07T08:45:09.432Z,24.63
2023-12-07T08:46:09.468Z,24.83
2023-12-07T08:47:09.431Z,25.00
2023-12-07T08:48:09.594Z,25.00
2023-12-07T08:49:10.981Z,25.07
2023-12-07T08:50:09.463Z,25.22
2023-12-07T08:51:09.559Z,25.23
2023-12-07T08:52:22.300Z,25.27
2023-12-07T08:53:10.580Z,25.36
2023-12-07T08:54:09.468Z,25.35
2023-12-07T08:55:09.458Z,25.28
2023-12-07T08:56:09.452Z,25.35
2023-12-07T08:57:09.464Z,25.43
2023-12-07T08:58:09.464Z,25.52
2023-12-07T08:59:09.456Z,25.45
2023-12-07T09:00:09.456Z,25.57
2023-12-07T09:01:13.374Z,25.53
2023-12-07T09:02:10.565Z,25.63
2023-12-07T09:03:09.525Z,25.64
2023-12-07T09:04:09.541Z,25.65
2023-12-07T09:05:09.488Z,25.98
2023-12-07T09:06:09.588Z,25.85
2023-12-07T09:07:09.563Z,25.86
2023-12-07T09:08:09.656Z,25.87
2023-12-07T09:09:09.511Z,25.87
2023-12-07T09:10:09.628Z,25.85
2023-12-07T09:11:09.473Z,25.79
2023-12-07T09:12:09.529Z,25.73
2023-12-07T09:13:09.549Z,25.75
2023-12-07T09:14:09.499Z,25.71
2023-12-07T09:15:09.595Z,25.70
2023-12-07T09:16:09.514Z,25.75
2023-12-07T09:17:09.717Z,25.83
2023-12-07T09:18:09.530Z,25.87
2023-12-07T09:19:09.544Z,25.90
2023-12-07T09:20:09.491Z,25.87
2023-12-07T09:21:09.522Z,25.86
2023-12-07T09:22:09.518Z,25.92
2023-12-07T09:23:09.604Z,25.95
2023-12-07T09:24:09.513Z,25.88
2023-12-07T09:25:09.542Z,25.95
2023-12-07T09:26:09.563Z,25.95
2023-12-07T09:27:09.565Z,25.95
2023-12-07T09:28:09.650Z,25.91
2023-12-07T09:29:09.612Z,25.87
2023-12-07T09:30:09.620Z,25.87
2023-12-07T09:31:09.661Z,25.75
2023-12-07T09:32:09.643Z,25.91
2023-12-07T09:33:09.758Z,25.85
2023-12-07T09:34:12.665Z,25.91
2023-12-07T09:35:09.741Z,25.57
2023-12-07T09:36:09.695Z,25.92
2023-12-07T09:37:09.753Z,25.95
2023-12-07T09:38:09.712Z,26.04
2023-12-07T09:39:17.106Z,26.68
2023-12-07T09:40:17.151Z,26.49
2023-12-07T09:41:17.196Z,26.69
2023-12-07T09:42:18.784Z,26.61
2023-12-07T09:43:17.234Z,26.54
2023-12-07T09:44:17.172Z,26.46
2023-12-07T09:45:17.166Z,26.50
2023-12-07T09:46:17.293Z,26.45
2023-12-07T09:47:22.268Z,25.54
2023-12-07T09:48:18.365Z,24.34
2023-12-07T09:49:17.216Z,24.00
2023-12-07T09:50:17.226Z,23.61
2023-12-07T09:51:17.191Z,23.36
2023-12-07T09:52:17.267Z,23.04
2023-12-07T09:53:17.216Z,23.08
2023-12-07T09:54:17.221Z,23.76
2023-12-07T09:55:17.236Z,24.53
2023-12-07T09:56:17.257Z,24.93
2023-12-07T09:57:17.202Z,25.39
2023-12-07T09:58:20.499Z,26.05
2023-12-07T09:59:18.238Z,26.42
2023-12-07T10:00:17.231Z,26.52
2023-12-07T10:01:17.402Z,26.75
2023-12-07T10:02:17.201Z,26.76
2023-12-07T10:03:17.294Z,26.83
2023-12-07T10:04:17.349Z,26.81
2023-12-07T10:05:17.336Z,26.80
2023-12-07T10:06:17.252Z,26.76
2023-12-07T10:07:17.243Z,26.82
2023-12-07T10:08:17.200Z,26.87
2023-12-07T10:09:20.642Z,26.99
2023-12-07T10:10:18.323Z,27.03
2023-12-07T10:11:17.314Z,27.12
2023-12-07T10:12:17.230Z,27.17
2023-12-07T10:13:17.271Z,27.37
2023-12-07T10:14:17.238Z,27.48
2023-12-07T10:15:17.220Z,27.49
2023-12-07T10:16:17.391Z,27.62
2023-12-07T10:17:17.283Z,27.69
2023-12-07T10:18:17.331Z,27.75
2023-12-07T10:19:29.378Z,27.88
2023-12-07T10:20:18.318Z,27.95
2023-12-07T10:21:17.289Z,27.00
2023-12-07T10:22:17.400Z,24.57
2023-12-07T10:23:17.280Z,23.63
2023-12-07T10:24:17.280Z,23.36
2023-12-07T10:25:18.074Z,23.30
2023-12-07T10:26:17.330Z,23.11
2023-12-07T10:27:17.268Z,23.10
2023-12-07T10:28:17.326Z,23.19
2023-12-07T10:29:24.442Z,23.82
2023-12-07T10:30:18.296Z,24.39
2023-12-07T10:31:17.321Z,24.71
2023-12-07T10:32:17.270Z,25.15
2023-12-07T10:33:17.436Z,25.39
2023-12-07T10:34:17.352Z,25.45
2023-12-07T10:35:17.330Z,25.62
2023-12-07T10:36:17.352Z,25.76
2023-12-07T10:37:17.340Z,25.78
2023-12-07T10:38:17.288Z,25.76
2023-12-07T10:39:21.727Z,25.99
2023-12-07T10:40:18.325Z,26.08
2023-12-07T10:41:17.329Z,25.96
2023-12-07T10:42:17.338Z,26.00
2023-12-07T10:43:17.325Z,25.89
2023-12-07T10:44:17.301Z,25.90
2023-12-07T10:45:17.321Z,25.95
2023-12-07T10:46:17.323Z,25.91
2023-12-07T10:47:17.309Z,25.98
2023-12-07T10:48:17.389Z,26.03
2023-12-07T10:49:21.861Z,26.01
2023-12-07T10:50:18.373Z,26.12
2023-12-07T10:51:17.302Z,26.08
2023-12-07T10:52:17.408Z,26.14
2023-12-07T10:53:17.350Z,26.02
2023-12-07T10:54:17.330Z,25.99
2023-12-07T10:55:17.337Z,26.07
2023-12-07T10:56:17.303Z,26.34
2023-12-07T10:57:17.857Z,26.20
2023-12-07T10:58:17.407Z,26.30
2023-12-07T10:59:23.741Z,26.34
2023-12-07T11:00:19.525Z,26.41
2023-12-07T11:01:17.415Z,26.47
2023-12-07T11:02:19.958Z,26.51
2023-12-07T11:03:17.568Z,26.65
2023-12-07T11:04:17.397Z,26.95
2023-12-07T11:05:17.381Z,26.81
2023-12-07T11:06:17.416Z,26.63
2023-12-07T11:07:17.354Z,26.84
2023-12-07T11:08:17.330Z,26.86
2023-12-07T11:09:23.356Z,26.79
2023-12-07T11:10:18.383Z,26.86
2023-12-07T11:11:17.346Z,26.96
2023-12-07T11:12:17.389Z,27.00
2023-12-07T11:13:17.365Z,27.20
2023-12-07T11:14:17.574Z,27.15
2023-12-07T11:15:17.354Z,27.09
2023-12-07T11:16:17.373Z,27.15
2023-12-07T11:17:17.351Z,27.14
2023-12-07T11:18:17.375Z,27.42
2023-12-07T11:19:22.630Z,27.57
2023-12-07T11:20:18.424Z,27.54
2023-12-07T11:21:17.376Z,27.81
2023-12-07T11:22:17.400Z,27.73
2023-12-07T11:23:17.335Z,27.52
2023-12-07T11:24:17.357Z,27.45
2023-12-07T11:25:17.383Z,27.42
2023-12-07T11:26:17.387Z,27.49
2023-12-07T11:27:17.327Z,27.48
2023-12-07T11:28:17.466Z,27.44
2023-12-07T11:29:19.031Z,27.46
2023-12-07T11:30:18.383Z,27.52
2023-12-07T11:31:17.402Z,27.37
2023-12-07T11:32:22.803Z,27.38
2023-12-07T11:33:18.515Z,27.06
2023-12-07T11:34:17.360Z,27.15
2023-12-07T11:35:17.365Z,27.25
2023-12-07T11:36:17.409Z,27.23
2023-12-07T11:37:17.415Z,27.10
2023-12-07T11:38:17.359Z,27.07
2023-12-07T11:39:21.242Z,27.29
2023-12-07T11:40:18.401Z,27.27
2023-12-07T11:41:17.405Z,27.44
2023-12-07T11:42:17.405Z,27.41
2023-12-07T11:43:17.423Z,27.50
2023-12-07T11:44:17.423Z,27.55
2023-12-07T11:45:17.404Z,27.65
2023-12-07T11:46:17.484Z,27.64
2023-12-07T11:47:17.461Z,27.70
2023-12-07T11:48:18.798Z,27.64
2023-12-07T11:49:25.296Z,27.90
2023-12-07T11:50:18.457Z,27.77
2023-12-07T11:51:17.430Z,27.99
2023-12-07T11:52:17.501Z,28.01
2023-12-07T11:53:17.441Z,28.18
2023-12-07T11:54:17.395Z,28.34
2023-12-07T11:55:17.520Z,28.39
2023-12-07T11:56:17.427Z,28.12
2023-12-07T11:57:17.472Z,28.14
2023-12-07T11:58:17.465Z,28.10
2023-12-07T11:59:21.872Z,28.21
2023-12-07T12:00:17.447Z,28.20
2023-12-07T12:01:17.513Z,28.18
2023-12-07T12:02:17.513Z,28.14
2023-12-07T12:03:17.470Z,28.19
2023-12-07T12:04:17.448Z,28.12
2023-12-07T12:05:17.577Z,28.24
2023-12-07T12:06:17.472Z,28.18
2023-12-07T12:07:17.468Z,28.21
2023-12-07T12:08:17.441Z,28.25
2023-12-07T12:09:20.576Z,28.21
2023-12-07T12:10:18.488Z,28.14
2023-12-07T12:11:17.447Z,28.03
2023-12-07T12:12:17.491Z,27.96
2023-12-07T12:13:17.519Z,27.89
2023-12-07T12:14:18.102Z,27.71
2023-12-07T12:15:17.495Z,27.66
2023-12-07T12:16:17.532Z,27.42
2023-12-07T12:17:17.481Z,27.42
2023-12-07T12:18:17.580Z,27.29
2023-12-07T12:19:25.920Z,27.20
2023-12-07T12:20:18.611Z,27.14
2023-12-07T12:21:17.490Z,27.15
2023-12-07T12:22:17.497Z,27.12
2023-12-07T12:23:17.479Z,27.06
2023-12-07T12:24:17.502Z,27.10
2023-12-07T12:25:17.668Z,26.98
2023-12-07T12:26:17.481Z,26.97
2023-12-07T12:27:17.521Z,26.94
2023-12-07T12:28:17.535Z,26.92
2023-12-07T12:29:23.626Z,26.96
2023-12-07T12:30:20.030Z,26.98
2023-12-07T12:31:18.518Z,26.96
2023-12-07T12:32:17.532Z,27.02
2023-12-07T12:33:17.500Z,27.02
2023-12-07T12:34:17.650Z,27.02
2023-12-07T12:35:17.525Z,26.96
2023-12-07T12:36:17.770Z,26.98
2023-12-07T12:37:17.519Z,26.98
2023-12-07T12:38:24.426Z,26.93
2023-12-07T12:39:26.769Z,26.96
2023-12-07T12:40:18.709Z,26.97
2023-12-07T12:41:17.488Z,26.90
2023-12-07T12:42:17.542Z,26.93
2023-12-07T12:43:17.561Z,27.08
2023-12-07T12:44:24.592Z,26.90
2023-12-07T12:45:18.653Z,26.99
2023-12-07T12:46:17.625Z,27.04
2023-12-07T12:47:17.529Z,26.94
2023-12-07T12:48:17.556Z,27.04
2023-12-07T12:49:17.568Z,26.94
2023-12-07T12:50:17.540Z,27.07
2023-12-07T12:51:17.534Z,27.19
2023-12-07T12:52:17.782Z,27.14
2023-12-07T12:53:17.535Z,27.18
2023-12-07T12:54:23.484Z,27.22
2023-12-07T12:55:18.577Z,27.23
2023-12-07T12:56:17.555Z,27.23
2023-12-07T12:57:17.577Z,27.30
2023-12-07T12:58:17.542Z,27.25
2023-12-07T12:59:17.557Z,27.43
2023-12-07T13:00:17.560Z,27.84
2023-12-07T13:01:17.667Z,27.85
2023-12-07T13:02:17.575Z,27.71
2023-12-07T13:03:17.534Z,27.78
2023-12-07T13:04:17.633Z,27.61
2023-12-07T13:05:17.590Z,27.10
2023-12-07T13:06:17.574Z,26.98
2023-12-07T13:07:17.608Z,26.79
2023-12-07T13:08:17.627Z,26.68
2023-12-07T13:09:17.535Z,26.57
2023-12-07T13:10:17.596Z,26.31
2023-12-07T13:11:17.553Z,26.18
2023-12-07T13:12:17.564Z,25.97
2023-12-07T13:13:17.585Z,25.85
2023-12-07T13:14:17.713Z,25.89
2023-12-07T13:15:17.606Z,25.93
2023-12-07T13:16:17.714Z,26.70
2023-12-07T13:17:17.679Z,26.77
2023-12-07T13:18:17.799Z,26.42
2023-12-07T13:19:17.840Z,26.22
2023-12-07T13:20:17.833Z,26.42
2023-12-07T13:21:18.011Z,26.42
2023-12-07T13:22:17.948Z,26.54
2023-12-07T13:23:17.894Z,26.21
2023-12-07T13:24:17.969Z,26.24
2023-12-07T13:25:18.112Z,26.19
2023-12-07T13:26:17.948Z,26.09
2023-12-07T13:27:18.054Z,25.90
2023-12-07T13:28:18.211Z,25.76
2023-12-07T13:29:24.618Z,25.51
2023-12-07T13:30:19.249Z,25.62
2023-12-07T13:31:18.221Z,25.56
2023-12-07T13:32:18.046Z,25.48
2023-12-07T13:33:25.414Z,25.48
2023-12-07T13:34:23.795Z,25.42
2023-12-07T13:35:18.410Z,25.35
2023-12-07T13:36:35.243Z,25.22
2023-12-07T13:37:18.335Z,25.27
2023-12-07T13:38:19.293Z,25.16
2023-12-07T13:39:28.029Z,25.05
2023-12-07T13:40:19.347Z,25.05
2023-12-07T13:41:18.338Z,25.04
2023-12-07T13:42:18.340Z,25.01
2023-12-07T13:43:19.024Z,25.03
2023-12-07T13:44:25.175Z,24.93
2023-12-07T13:45:19.312Z,24.85
2023-12-07T13:46:18.350Z,24.64
2023-12-07T13:47:18.344Z,24.71
2023-12-07T13:48:18.394Z,24.89
2023-12-07T13:49:22.110Z,24.50
2023-12-07T13:50:19.315Z,24.52
2023-12-07T13:51:18.407Z,24.39
2023-12-07T13:52:18.374Z,24.60
2023-12-07T13:53:18.346Z,24.57
2023-12-07T13:54:34.754Z,24.61
2023-12-07T13:55:19.365Z,24.57
2023-12-07T13:56:18.380Z,24.46
2023-12-07T13:57:18.365Z,24.46
2023-12-07T13:58:18.443Z,24.43
2023-12-07T13:59:18.400Z,24.33
2023-12-07T14:00:18.340Z,24.46
2023-12-07T14:01:18.412Z,24.43
2023-12-07T14:02:18.390Z,24.38
2023-12-07T14:03:18.441Z,24.37
2023-12-07T14:04:26.691Z,24.42
2023-12-07T14:05:21.917Z,24.26
2023-12-07T14:06:25.165Z,24.33
2023-12-07T14:07:19.415Z,24.35
2023-12-07T14:08:18.398Z,24.35
2023-12-07T14:09:18.408Z,24.35
2023-12-07T14:10:18.436Z,24.40
2023-12-07T14:11:18.413Z,24.37
2023-12-07T14:12:18.386Z,24.09
2023-12-07T14:13:18.461Z,23.71
2023-12-07T14:14:18.476Z,23.86
2023-12-07T14:15:23.625Z,23.84
2023-12-07T14:16:27.401Z,23.57
2023-12-07T14:17:20.225Z,23.48
2023-12-07T14:18:18.650Z,23.48
2023-12-07T14:19:18.490Z,23.41
2023-12-07T14:20:34.404Z,23.28
2023-12-07T14:21:28.389Z,23.23
2023-12-07T14:22:19.489Z,23.16
2023-12-07T14:23:18.436Z,23.07
2023-12-07T14:24:18.410Z,23.07
2023-12-07T14:25:18.421Z,23.08
2023-12-07T14:26:18.460Z,23.04
2023-12-07T14:27:18.471Z,23.00
2023-12-07T14:28:18.433Z,22.96
2023-12-07T14:29:23.459Z,22.93
2023-12-07T14:30:19.459Z,22.93
2023-12-07T14:31:18.456Z,22.82
2023-12-07T14:32:18.454Z,22.82
2023-12-07T14:33:18.518Z,22.85
2023-12-07T14:34:23.718Z,22.73
2023-12-07T14:35:19.791Z,22.70
2023-12-07T14:36:18.585Z,22.70
2023-12-07T14:37:18.606Z,22.62
2023-12-07T14:38:18.603Z,22.59
2023-12-07T14:39:18.466Z,22.53
2023-12-07T14:40:18.595Z,22.52
2023-12-07T14:41:18.502Z,22.50
2023-12-07T14:42:18.481Z,22.52
2023-12-07T14:43:19.588Z,22.54
2023-12-07T14:45:19.491Z,22.51
2023-12-07T14:46:21.071Z,22.56
2023-12-07T14:47:18.494Z,22.59
2023-12-07T14:48:18.697Z,22.45
2023-12-07T14:49:18.641Z,22.42
2023-12-07T14:50:19.940Z,22.40
2023-12-07T14:51:19.320Z,22.46
2023-12-07T14:52:18.590Z,22.43
2023-12-07T14:53:18.601Z,22.45
2023-12-07T14:55:18.642Z,22.45
2023-12-07T14:56:18.658Z,22.92
2023-12-07T14:57:18.671Z,22.93
2023-12-07T14:58:18.702Z,22.76
2023-12-07T14:59:18.740Z,22.84
2023-12-07T15:00:18.743Z,22.84
2023-12-07T15:01:18.820Z,22.99
2023-12-07T15:02:18.788Z,23.55
2023-12-07T15:03:18.924Z,23.63
2023-12-07T15:04:27.853Z,24.19
2023-12-07T15:05:19.927Z,24.29
2023-12-07T15:06:19.020Z,24.62
2023-12-07T15:07:18.828Z,24.73
2023-12-07T15:08:18.844Z,24.67
2023-12-07T15:09:18.826Z,24.73
2023-12-07T15:10:18.850Z,24.85
2023-12-07T15:11:18.863Z,24.98
2023-12-07T15:12:18.921Z,25.00
2023-12-07T15:13:18.879Z,24.95
2023-12-07T15:14:29.852Z,24.91
2023-12-07T15:15:19.914Z,24.88
2023-12-07T15:16:18.897Z,24.84
2023-12-07T15:17:18.864Z,24.83
2023-12-07T15:18:18.969Z,24.79
2023-12-07T15:19:18.962Z,24.87
2023-12-07T15:20:18.895Z,24.87
2023-12-07T15:21:18.948Z,24.91
2023-12-07T15:22:18.864Z,24.94
2023-12-07T15:23:18.850Z,24.88
2023-12-07T15:24:23.488Z,24.91
2023-12-07T15:25:19.890Z,24.93
2023-12-07T15:26:18.885Z,24.93
2023-12-07T15:27:18.899Z,24.83
2023-12-07T15:28:18.928Z,24.74
2023-12-07T15:29:18.873Z,24.77
2023-12-07T15:30:18.862Z,24.74
2023-12-07T15:31:18.907Z,24.71
2023-12-07T15:32:18.910Z,24.66
2023-12-07T15:33:19.032Z,24.70
2023-12-07T15:34:25.671Z,24.72
2023-12-07T15:35:19.917Z,24.73
2023-12-07T15:36:19.041Z,24.66
2023-12-07T15:37:18.908Z,24.72
2023-12-07T15:38:18.939Z,24.69
2023-12-07T15:39:18.949Z,24.67
2023-12-07T15:40:18.939Z,24.72
2023-12-07T15:41:18.935Z,24.70
2023-12-07T15:42:18.894Z,24.73
2023-12-07T15:43:18.963Z,24.73
2023-12-07T15:44:22.900Z,24.74
2023-12-07T15:45:19.936Z,24.74
2023-12-07T15:46:18.922Z,24.73
2023-12-07T15:47:18.897Z,24.76
2023-12-07T15:48:19.033Z,24.71
2023-12-07T15:49:19.020Z,24.77
2023-12-07T15:50:18.946Z,24.78
2023-12-07T15:51:18.953Z,24.78
2023-12-07T15:52:19.013Z,24.74
2023-12-07T15:53:18.929Z,24.77
2023-12-07T15:54:27.260Z,24.77
2023-12-07T15:55:19.928Z,24.81
2023-12-07T15:56:24.393Z,24.83
2023-12-07T15:57:19.945Z,24.80
2023-12-07T15:58:18.997Z,24.84
2023-12-07T15:59:18.936Z,24.82
2023-12-07T16:00:18.934Z,24.84
2023-12-07T16:01:18.950Z,24.85
2023-12-07T16:02:18.940Z,24.85
2023-12-07T16:03:18.940Z,24.87
2023-12-07T16:04:26.623Z,24.89
2023-12-07T16:05:19.961Z,24.87
2023-12-07T16:06:18.960Z,24.87
2023-12-07T16:07:18.960Z,24.94
2023-12-07T16:08:18.988Z,24.85
2023-12-07T16:09:19.077Z,24.89
2023-12-07T16:10:18.989Z,24.93
2023-12-07T16:11:18.952Z,24.91
2023-12-07T16:12:18.959Z,24.92
2023-12-07T16:13:18.968Z,24.92
2023-12-07T16:14:24.432Z,24.93
2023-12-07T16:15:20.055Z,24.92
2023-12-07T16:16:18.981Z,24.99
2023-12-07T16:17:18.987Z,24.91
2023-12-07T16:18:19.121Z,24.95
2023-12-07T16:19:19.080Z,24.93
2023-12-07T16:20:19.015Z,24.98
2023-12-07T16:21:18.978Z,24.99
2023-12-07T16:22:19.012Z,24.96
2023-12-07T16:23:18.980Z,25.03
2023-12-07T16:24:19.059Z,25.00
2023-12-07T16:25:22.981Z,25.00
2023-12-07T16:26:19.015Z,24.96
2023-12-07T16:27:19.023Z,25.03
2023-12-07T16:28:19.010Z,25.02
2023-12-07T16:29:19.025Z,25.03
2023-12-07T16:30:19.045Z,25.06
2023-12-07T16:31:18.999Z,25.03
2023-12-07T16:32:19.022Z,25.03
2023-12-07T16:33:19.168Z,25.08
2023-12-07T16:34:19.436Z,25.05
2023-12-07T16:35:18.990Z,25.10
2023-12-07T16:36:23.064Z,25.10
2023-12-07T16:37:19.029Z,25.11
2023-12-07T16:38:19.054Z,25.09
2023-12-07T16:39:19.046Z,25.13
2023-12-07T16:40:19.022Z,25.17
2023-12-07T16:41:19.027Z,25.17
2023-12-07T16:42:19.032Z,25.18
2023-12-07T16:43:19.021Z,25.21
2023-12-07T16:44:19.030Z,25.21
2023-12-07T16:45:19.153Z,25.19
2023-12-07T16:46:19.041Z,25.25
2023-12-07T16:47:19.045Z,25.26
2023-12-07T16:48:19.201Z,25.29
2023-12-07T16:49:19.099Z,25.26
2023-12-07T16:50:19.035Z,25.32
2023-12-07T16:51:19.059Z,25.28
2023-12-07T16:52:19.031Z,25.28
2023-12-07T16:53:19.032Z,25.29
2023-12-07T16:54:19.026Z,25.32
2023-12-07T16:55:19.040Z,25.33
2023-12-07T16:56:19.041Z,25.35
2023-12-07T16:57:19.054Z,25.36
2023-12-07T16:59:19.051Z,25.36
2023-12-07T17:00:19.079Z,25.37
2023-12-07T17:01:19.103Z,25.35
2023-12-07T17:02:19.034Z,25.42
2023-12-07T17:03:20.703Z,25.40
2023-12-07T17:04:19.133Z,25.40
2023-12-07T17:05:19.057Z,25.40
2023-12-07T17:06:19.094Z,25.40
2023-12-07T17:07:19.098Z,25.44
2023-12-07T17:08:19.085Z,25.47
2023-12-07T17:09:19.190Z,25.47
2023-12-07T17:10:19.096Z,25.47
2023-12-07T17:11:19.074Z,25.50
2023-12-07T17:12:19.051Z,25.46
2023-12-07T17:13:19.100Z,25.46
2023-12-07T17:14:19.075Z,25.54
2023-12-07T17:15:19.102Z,25.50
2023-12-07T17:16:19.125Z,25.54
2023-12-07T17:17:19.087Z,25.52
2023-12-07T17:18:19.262Z,25.52
2023-12-07T17:19:19.277Z,25.58
2023-12-07T17:20:19.093Z,25.58
2023-12-07T17:21:19.109Z,25.60
2023-12-07T17:22:19.111Z,25.58
2023-12-07T17:23:19.092Z,25.62
2023-12-07T17:24:19.134Z,25.60
2023-12-07T17:25:19.154Z,25.62
2023-12-07T17:26:19.214Z,25.60
2023-12-07T17:27:19.171Z,25.65
2023-12-07T17:28:19.211Z,25.68
2023-12-07T17:29:19.200Z,25.63
2023-12-07T17:30:19.234Z,25.62
2023-12-07T17:31:19.302Z,25.66
2023-12-07T17:32:19.315Z,25.66
2023-12-07T17:33:19.523Z,25.63
2023-12-07T17:34:19.695Z,25.65
2023-12-07T17:35:19.338Z,25.70
2023-12-07T17:36:19.398Z,25.65
2023-12-07T17:37:19.388Z,25.69
2023-12-07T17:38:19.436Z,25.73
2023-12-07T17:39:19.530Z,25.72
2023-12-07T17:40:19.442Z,25.72
2023-12-07T17:41:19.544Z,25.72
2023-12-07T17:42:19.539Z,25.69
2023-12-07T17:43:19.550Z,25.77
2023-12-07T17:44:19.646Z,25.74
2023-12-07T17:45:19.615Z,25.76
2023-12-07T17:46:19.639Z,25.74
2023-12-07T17:47:19.650Z,25.76
2023-12-07T17:48:19.742Z,25.81
2023-12-07T17:49:19.785Z,25.79
2023-12-07T17:50:19.708Z,25.80
2023-12-07T17:51:19.746Z,25.86
2023-12-07T17:52:19.762Z,25.74
2023-12-07T17:53:19.809Z,25.83
2023-12-07T17:54:19.815Z,25.87
2023-12-07T17:55:19.831Z,25.83
2023-12-07T17:56:19.871Z,25.88
2023-12-07T17:57:19.920Z,25.84
2023-12-07T17:58:19.904Z,25.89
2023-12-07T17:59:19.939Z,25.88
2023-12-07T18:00:19.980Z,25.91
